Time;durP1;ratioP1;P1;durP2;ratioP2;P2;SDS_P1;SDS_P2;PMS_P1;PMS_P2;Temp;Humidity;BMP_temperature;BMP_pressure;BME280_temperature;BME280_humidity;BME280_pressure;Samples;Min_cycle;Max_cycle;Signal;HPM_P1;HPM_P2
2022/05/09 00:00:15;;;;;;;6.60;3.60;;;;;;;-128.00;-1.00;-1.00;100265;1300;1003832;-27
2022/05/09 00:02:44;;;;;;;7.20;4.00;;;;;;;-128.00;-1.00;-1.00;100268;1300;1004269;-24
2022/05/09 00:05:15;;;;;;;4.70;3.30;;;;;;;-128.00;-1.00;-1.00;100232;1300;1004339;-29
2022/05/09 00:07:45;;;;;;;5.20;3.90;;;;;;;-128.00;-1.00;-1.00;100268;1300;1003185;-25
2022/05/09 00:10:21;;;;;;;5.00;4.40;;;;;;;-128.00;-1.00;-1.00;100321;1300;1004007;-28
2022/05/09 00:12:50;;;;;;;4.80;3.20;;;;;;;-128.00;-1.00;-1.00;100137;1300;1003524;-28
2022/05/09 00:15:20;;;;;;;4.40;3.20;;;;;;;-128.00;-1.00;-1.00;100263;1300;1003688;-25
2022/05/09 00:17:49;;;;;;;6.20;4.00;;;;;;;-128.00;-1.00;-1.00;100116;1300;1004514;-25
2022/05/09 00:20:18;;;;;;;7.30;4.30;;;;;;;-128.00;-1.00;-1.00;100221;1300;1003302;-25
2022/05/09 00:22:51;;;;;;;6.00;4.60;;;;;;;-128.00;-1.00;-1.00;100159;1300;1004033;-29
2022/05/09 00:25:21;;;;;;;5.00;4.30;;;;;;;-128.00;-1.00;-1.00;100102;1300;1003242;-25
2022/05/09 00:27:50;;;;;;;8.60;3.70;;;;;;;-128.00;-1.00;-1.00;100210;1300;1004357;-25
2022/05/09 00:30:21;;;;;;;7.30;3.40;;;;;;;-128.00;-1.00;-1.00;100289;1300;1004391;-25
2022/05/09 00:32:50;;;;;;;6.70;4.00;;;;;;;-128.00;-1.00;-1.00;100261;1300;1003632;-24
2022/05/09 00:35:19;;;;;;;7.70;4.90;;;;;;;-128.00;-1.00;-1.00;100098;1300;1003539;-28
2022/05/09 00:37:48;;;;;;;7.50;4.00;;;;;;;-128.00;-1.00;-1.00;100112;1300;1004295;-29
2022/05/09 00:40:17;;;;;;;5.50;4.20;;;;;;;-128.00;-1.00;-1.00;100299;1300;1003015;-25
2022/05/09 00:42:48;;;;;;;5.00;3.70;;;;;;;-128.00;-1.00;-1.00;100294;1300;1004427;-29
2022/05/09 00:45:18;;;;;;;6.30;4.40;;;;;;;-128.00;-1.00;-1.00;100271;1300;1003670;-25
2022/05/09 00:47:47;;;;;;;5.80;3.60;;;;;;;-128.00;-1.00;-1.00;100282;1300;1004116;-25
2022/05/09 00:50:21;;;;;;;6.20;4.30;;;;;;;-128.00;-1.00;-1.00;100269;1299;1003853;-25
2022/05/09 00:52:56;;;;;;;6.50;3.90;;;;;;;-128.00;-1.00;-1.00;100246;1300;1003958;-25
2022/05/09 00:55:29;;;;;;;6.70;3.80;;;;;;;-128.00;-1.00;-1.00;100252;1300;1003546;-25
2022/05/09 00:58:04;;;;;;;6.50;4.50;;;;;;;-128.00;-1.00;-1.00;100261;1300;1003075;-28
2022/05/09 01:00:33;;;;;;;10.90;4.70;;;;;;;-128.00;-1.00;-1.00;100254;1299;1004677;-28
2022/05/09 01:03:06;;;;;;;6.30;4.40;;;;;;;-128.00;-1.00;-1.00;100255;1300;1004073;-28
2022/05/09 01:05:36;;;;;;;10.60;4.10;;;;;;;-128.00;-1.00;-1.00;100270;1300;1003103;-25
2022/05/09 01:08:05;;;;;;;13.00;4.80;;;;;;;-128.00;-1.00;-1.00;100230;1300;1003417;-27
2022/05/09 01:10:36;;;;;;;15.30;4.50;;;;;;;-128.00;-1.00;-1.00;100271;1300;1003466;-28
2022/05/09 01:13:07;;;;;;;8.20;6.20;;;;;;;-128.00;-1.00;-1.00;100310;1300;1003524;-28
2022/05/09 01:15:36;;;;;;;13.20;6.40;;;;;;;-128.00;-1.00;-1.00;100233;1300;1004873;-27
2022/05/09 01:18:06;;;;;;;8.10;5.00;;;;;;;-128.00;-1.00;-1.00;100397;1300;1003838;-28
2022/05/09 01:20:35;;;;;;;7.50;4.60;;;;;;;-128.00;-1.00;-1.00;100308;1300;1004105;-28
2022/05/09 01:23:07;;;;;;;10.10;5.00;;;;;;;-128.00;-1.00;-1.00;100294;1300;1003051;-25
2022/05/09 01:25:37;;;;;;;7.30;5.30;;;;;;;-128.00;-1.00;-1.00;100298;1300;1003553;-28
2022/05/09 01:28:07;;;;;;;11.50;5.40;;;;;;;-128.00;-1.00;-1.00;100210;1300;1003836;-24
2022/05/09 01:30:42;;;;;;;11.80;6.30;;;;;;;-128.00;-1.00;-1.00;100270;1300;1003038;-30
2022/05/09 01:33:18;;;;;;;14.90;6.40;;;;;;;-128.00;-1.00;-1.00;100244;1300;1002843;-30
2022/05/09 01:35:49;;;;;;;8.90;4.00;;;;;;;-128.00;-1.00;-1.00;100247;1300;1003031;-27
2022/05/09 01:38:25;;;;;;;7.70;4.80;;;;;;;-128.00;-1.00;-1.00;100253;1300;1004077;-25
2022/05/09 01:40:55;;;;;;;11.30;5.50;;;;;;;-128.00;-1.00;-1.00;100133;1300;1004295;-28
2022/05/09 01:43:28;;;;;;;13.60;4.40;;;;;;;-128.00;-1.00;-1.00;100250;1300;1003827;-28
2022/05/09 01:45:57;;;;;;;7.90;4.00;;;;;;;-128.00;-1.00;-1.00;100270;1300;1002956;-25
2022/05/09 01:50:59;;;;;;;7.30;4.20;;;;;;;-128.00;-1.00;-1.00;100231;1300;1003338;-25
2022/05/09 01:53:28;;;;;;;8.90;4.00;;;;;;;-128.00;-1.00;-1.00;100233;1300;1003467;-30
2022/05/09 01:55:57;;;;;;;7.60;4.40;;;;;;;-128.00;-1.00;-1.00;100262;1300;1003447;-27
2022/05/09 01:58:25;;;;;;;8.10;5.30;;;;;;;-128.00;-1.00;-1.00;100234;1300;1004207;-29
2022/05/09 02:00:54;;;;;;;9.90;5.30;;;;;;;-128.00;-1.00;-1.00;100226;1300;1003103;-28
2022/05/09 02:03:23;;;;;;;14.30;6.10;;;;;;;-128.00;-1.00;-1.00;100140;1300;1003530;-28
2022/05/09 02:05:52;;;;;;;8.00;5.00;;;;;;;-128.00;-1.00;-1.00;100242;1300;1003381;-28
2022/05/09 02:08:21;;;;;;;9.80;5.30;;;;;;;-128.00;-1.00;-1.00;100295;1300;1002967;-28
2022/05/09 02:10:50;;;;;;;9.60;4.70;;;;;;;-128.00;-1.00;-1.00;100278;1300;1003802;-25
2022/05/09 02:13:20;;;;;;;14.50;5.10;;;;;;;-128.00;-1.00;-1.00;100254;1300;1003132;-28
2022/05/09 02:15:49;;;;;;;6.40;4.60;;;;;;;-128.00;-1.00;-1.00;99531;1300;1003668;-30
2022/05/09 02:18:18;;;;;;;10.80;4.60;;;;;;;-128.00;-1.00;-1.00;100275;1300;1004779;-25
2022/05/09 02:20:46;;;;;;;9.90;5.40;;;;;;;-128.00;-1.00;-1.00;100311;1300;1002962;-25
2022/05/09 02:23:17;;;;;;;7.70;4.90;;;;;;;-128.00;-1.00;-1.00;100269;1299;1004828;-25
2022/05/09 02:25:46;;;;;;;10.10;4.50;;;;;;;-128.00;-1.00;-1.00;100273;1300;1004041;-24
2022/05/09 02:28:15;;;;;;;8.50;5.10;;;;;;;-128.00;-1.00;-1.00;100254;1300;1003664;-25
2022/05/09 02:30:44;;;;;;;11.30;3.90;;;;;;;-128.00;-1.00;-1.00;100239;1299;1003410;-25
2022/05/09 02:33:13;;;;;;;6.30;3.80;;;;;;;-128.00;-1.00;-1.00;100240;1300;1003707;-25
2022/05/09 02:35:43;;;;;;;9.30;4.70;;;;;;;-128.00;-1.00;-1.00;100266;1300;1003642;-24
2022/05/09 02:38:12;;;;;;;7.80;4.80;;;;;;;-128.00;-1.00;-1.00;100228;1300;1003948;-27
2022/05/09 02:40:42;;;;;;;7.90;3.90;;;;;;;-128.00;-1.00;-1.00;100308;1300;1003504;-25
2022/05/09 02:43:11;;;;;;;9.20;4.60;;;;;;;-128.00;-1.00;-1.00;100254;1300;1003944;-25
2022/05/09 02:45:40;;;;;;;10.20;4.10;;;;;;;-128.00;-1.00;-1.00;100231;1300;1003696;-27
2022/05/09 02:48:10;;;;;;;11.00;4.10;;;;;;;-128.00;-1.00;-1.00;100290;1300;1003461;-25
2022/05/09 02:50:39;;;;;;;6.90;4.00;;;;;;;-128.00;-1.00;-1.00;100306;1300;1003584;-28
2022/05/09 02:53:10;;;;;;;9.80;3.90;;;;;;;-128.00;-1.00;-1.00;100287;1300;1003912;-24
2022/05/09 02:55:39;;;;;;;5.00;3.10;;;;;;;-128.00;-1.00;-1.00;100171;1300;1003766;-28
2022/05/09 02:58:08;;;;;;;5.80;3.30;;;;;;;-128.00;-1.00;-1.00;100299;1300;1003565;-25
2022/05/09 03:00:37;;;;;;;12.40;3.70;;;;;;;-128.00;-1.00;-1.00;100251;1300;1004120;-27
2022/05/09 03:05:39;;;;;;;8.40;3.30;;;;;;;-128.00;-1.00;-1.00;100247;1300;1004973;-23
2022/05/09 03:08:09;;;;;;;7.30;3.50;;;;;;;-128.00;-1.00;-1.00;100289;1300;1003522;-25
2022/05/09 03:10:38;;;;;;;10.20;2.90;;;;;;;-128.00;-1.00;-1.00;100267;1300;1002909;-29
2022/05/09 03:13:08;;;;;;;4.80;3.30;;;;;;;-128.00;-1.00;-1.00;100110;1300;1003646;-28
2022/05/09 03:15:41;;;;;;;5.70;3.20;;;;;;;-128.00;-1.00;-1.00;100209;1300;1003188;-28
2022/05/09 03:18:10;;;;;;;4.70;3.20;;;;;;;-128.00;-1.00;-1.00;100265;1300;1003988;-30
2022/05/09 03:20:40;;;;;;;7.40;2.80;;;;;;;-128.00;-1.00;-1.00;100269;1299;1003844;-24
2022/05/09 03:23:09;;;;;;;5.20;3.60;;;;;;;-128.00;-1.00;-1.00;100286;1300;1004187;-25
2022/05/09 03:25:39;;;;;;;5.40;3.70;;;;;;;-128.00;-1.00;-1.00;100300;1300;1004030;-25
2022/05/09 03:28:10;;;;;;;5.00;3.70;;;;;;;-128.00;-1.00;-1.00;100245;1300;1004214;-25
2022/05/09 03:30:40;;;;;;;5.40;3.40;;;;;;;-128.00;-1.00;-1.00;100249;1300;1003213;-28
2022/05/09 03:33:09;;;;;;;5.70;3.40;;;;;;;-128.00;-1.00;-1.00;100290;1300;1003800;-28
2022/05/09 03:35:38;;;;;;;2.90;2.30;;;;;;;-128.00;-1.00;-1.00;100228;1300;1004436;-26
2022/05/09 03:38:07;;;;;;;6.10;2.90;;;;;;;-128.00;-1.00;-1.00;100283;1300;1003860;-25
2022/05/09 03:40:36;;;;;;;6.60;3.30;;;;;;;-128.00;-1.00;-1.00;100245;1300;1003814;-25
2022/05/09 03:43:06;;;;;;;5.30;2.30;;;;;;;-128.00;-1.00;-1.00;100075;1300;1004120;-24
2022/05/09 03:45:36;;;;;;;4.50;2.40;;;;;;;-128.00;-1.00;-1.00;100268;1300;1003626;-28
2022/05/09 03:48:05;;;;;;;5.20;2.30;;;;;;;-128.00;-1.00;-1.00;100253;1300;1004752;-28
2022/05/09 03:50:34;;;;;;;6.90;3.20;;;;;;;-128.00;-1.00;-1.00;100209;1300;1003492;-28
2022/05/09 03:53:04;;;;;;;5.90;2.30;;;;;;;-128.00;-1.00;-1.00;100275;1300;1003647;-28
2022/05/09 03:55:33;;;;;;;6.10;3.30;;;;;;;-128.00;-1.00;-1.00;100257;1300;1003842;-28
2022/05/09 03:58:03;;;;;;;5.20;2.40;;;;;;;-128.00;-1.00;-1.00;100205;1300;1003782;-25
2022/05/09 04:00:32;;;;;;;5.00;2.80;;;;;;;-128.00;-1.00;-1.00;100123;1300;1003862;-27
2022/05/09 04:03:02;;;;;;;5.90;3.50;;;;;;;-128.00;-1.00;-1.00;100250;1300;1004108;-28
2022/05/09 04:05:31;;;;;;;7.70;3.30;;;;;;;-128.00;-1.00;-1.00;100298;1300;1004170;-25
2022/05/09 04:08:01;;;;;;;7.80;3.10;;;;;;;-128.00;-1.00;-1.00;100257;1300;1003767;-23
2022/05/09 04:10:31;;;;;;;5.90;2.90;;;;;;;-128.00;-1.00;-1.00;100251;1300;1003659;-25
2022/05/09 04:13:00;;;;;;;12.40;3.10;;;;;;;-128.00;-1.00;-1.00;100133;1300;1004276;-28
2022/05/09 04:18:03;;;;;;;5.50;2.70;;;;;;;-128.00;-1.00;-1.00;100075;1300;1004020;-30
2022/05/09 04:20:32;;;;;;;7.80;3.50;;;;;;;-128.00;-1.00;-1.00;100272;1300;1004171;-27
2022/05/09 04:23:01;;;;;;;6.80;3.00;;;;;;;-128.00;-1.00;-1.00;100172;1300;1004103;-24
2022/05/09 04:25:31;;;;;;;7.40;4.20;;;;;;;-128.00;-1.00;-1.00;100277;1299;1003543;-27
2022/05/09 04:28:02;;;;;;;8.20;2.70;;;;;;;-128.00;-1.00;-1.00;100274;1300;1003569;-31
2022/05/09 04:30:32;;;;;;;9.90;2.70;;;;;;;-128.00;-1.00;-1.00;100245;1300;1003670;-25
2022/05/09 04:33:01;;;;;;;7.20;3.30;;;;;;;-128.00;-1.00;-1.00;100260;1300;1003793;-25
2022/05/09 04:35:31;;;;;;;5.80;2.70;;;;;;;-128.00;-1.00;-1.00;100194;1300;1004369;-28
2022/05/09 04:38:02;;;;;;;4.70;3.10;;;;;;;-128.00;-1.00;-1.00;100179;1300;1003182;-27
2022/05/09 04:40:32;;;;;;;4.30;2.60;;;;;;;-128.00;-1.00;-1.00;100209;1300;1003309;-24
2022/05/09 04:43:02;;;;;;;10.80;4.00;;;;;;;-128.00;-1.00;-1.00;100065;1299;1003909;-24
2022/05/09 04:45:32;;;;;;;5.90;2.50;;;;;;;-128.00;-1.00;-1.00;100246;1300;1003220;-28
2022/05/09 04:48:02;;;;;;;7.10;2.80;;;;;;;-128.00;-1.00;-1.00;100295;1300;1003312;-24
2022/05/09 04:50:33;;;;;;;5.40;2.40;;;;;;;-128.00;-1.00;-1.00;100065;1300;1004420;-28
2022/05/09 04:53:02;;;;;;;5.20;2.70;;;;;;;-128.00;-1.00;-1.00;100220;1300;1003252;-25
2022/05/09 04:55:31;;;;;;;6.50;2.60;;;;;;;-128.00;-1.00;-1.00;100253;1300;1003323;-29
2022/05/09 04:58:00;;;;;;;6.60;2.80;;;;;;;-128.00;-1.00;-1.00;100231;1300;1003924;-29
2022/05/09 05:00:29;;;;;;;9.90;2.60;;;;;;;-128.00;-1.00;-1.00;100119;1300;1002964;-29
2022/05/09 05:02:58;;;;;;;3.60;2.00;;;;;;;-128.00;-1.00;-1.00;100310;1300;1003002;-25
2022/05/09 05:05:27;;;;;;;5.60;2.90;;;;;;;-128.00;-1.00;-1.00;100286;1300;1003960;-29
2022/05/09 05:07:57;;;;;;;6.30;2.60;;;;;;;-128.00;-1.00;-1.00;100283;1300;1003867;-30
2022/05/09 05:10:27;;;;;;;4.50;2.50;;;;;;;-128.00;-1.00;-1.00;100069;1300;1002920;-26
2022/05/09 05:12:58;;;;;;;8.40;2.90;;;;;;;-128.00;-1.00;-1.00;100272;1300;1004157;-26
2022/05/09 05:15:27;;;;;;;11.80;2.60;;;;;;;-128.00;-1.00;-1.00;100268;1300;1002582;-26
2022/05/09 05:17:56;;;;;;;8.50;2.50;;;;;;;-128.00;-1.00;-1.00;100301;1299;1003675;-30
2022/05/09 05:20:26;;;;;;;11.50;2.80;;;;;;;-128.00;-1.00;-1.00;100248;1300;1003514;-25
2022/05/09 05:22:55;;;;;;;13.20;2.90;;;;;;;-128.00;-1.00;-1.00;100268;1300;1003073;-28
2022/05/09 05:25:26;;;;;;;4.20;2.60;;;;;;;-128.00;-1.00;-1.00;100245;1300;1004324;-23
2022/05/09 05:27:56;;;;;;;10.20;2.30;;;;;;;-128.00;-1.00;-1.00;100257;1300;1003606;-24
2022/05/09 05:30:25;;;;;;;8.70;2.90;;;;;;;-128.00;-1.00;-1.00;100293;1300;1003802;-29
2022/05/09 05:32:56;;;;;;;7.20;2.00;;;;;;;-128.00;-1.00;-1.00;100139;1300;1004306;-25
2022/05/09 05:35:25;;;;;;;10.20;2.20;;;;;;;-128.00;-1.00;-1.00;100234;1300;1004481;-24
2022/05/09 05:37:55;;;;;;;6.50;2.20;;;;;;;-128.00;-1.00;-1.00;100203;1300;1004444;-28
2022/05/09 05:40:24;;;;;;;12.50;2.60;;;;;;;-128.00;-1.00;-1.00;100359;1300;1002989;-29
2022/05/09 05:42:53;;;;;;;4.10;2.00;;;;;;;-128.00;-1.00;-1.00;100275;1300;1003208;-25
2022/05/09 05:45:22;;;;;;;6.20;2.60;;;;;;;-128.00;-1.00;-1.00;100256;1300;1003534;-27
2022/05/09 05:47:52;;;;;;;4.20;2.40;;;;;;;-128.00;-1.00;-1.00;100278;1300;1003845;-29
2022/05/09 05:50:22;;;;;;;6.70;3.30;;;;;;;-128.00;-1.00;-1.00;100289;1300;1003100;-28
2022/05/09 05:52:51;;;;;;;8.80;2.50;;;;;;;-128.00;-1.00;-1.00;100215;1300;1003411;-24
2022/05/09 05:55:20;;;;;;;3.70;2.60;;;;;;;-128.00;-1.00;-1.00;99532;1300;1002996;-24
2022/05/09 05:57:49;;;;;;;4.30;1.90;;;;;;;-128.00;-1.00;-1.00;100288;1300;1003555;-25
2022/05/09 06:00:21;;;;;;;3.80;2.60;;;;;;;-128.00;-1.00;-1.00;100100;1300;1003588;-25
2022/05/09 06:02:51;;;;;;;7.40;3.50;;;;;;;-128.00;-1.00;-1.00;100260;1300;1003492;-32
2022/05/09 06:05:20;;;;;;;8.10;2.20;;;;;;;-128.00;-1.00;-1.00;100328;1300;1004432;-30
2022/05/09 06:07:53;;;;;;;3.50;2.10;;;;;;;-128.00;-1.00;-1.00;100206;1300;1003207;-30
2022/05/09 06:10:22;;;;;;;8.20;2.20;;;;;;;-128.00;-1.00;-1.00;100237;1300;1003782;-26
2022/05/09 06:12:51;;;;;;;6.90;2.60;;;;;;;-128.00;-1.00;-1.00;100236;1300;1003106;-26
2022/05/09 06:17:54;;;;;;;9.60;2.80;;;;;;;-128.00;-1.00;-1.00;100255;1300;1003797;-29
2022/05/09 06:20:23;;;;;;;3.00;2.00;;;;;;;-128.00;-1.00;-1.00;100161;1300;1002824;-26
2022/05/09 06:22:54;;;;;;;2.70;1.90;;;;;;;-128.00;-1.00;-1.00;100292;1300;1003330;-24
2022/05/09 06:25:24;;;;;;;6.90;2.70;;;;;;;-128.00;-1.00;-1.00;100235;1299;1003865;-25
2022/05/09 06:27:53;;;;;;;3.30;2.10;;;;;;;-128.00;-1.00;-1.00;100241;1300;1003944;-24
2022/05/09 06:30:23;;;;;;;14.90;3.00;;;;;;;-128.00;-1.00;-1.00;100261;1299;1003273;-27
2022/05/09 06:32:53;;;;;;;5.10;2.80;;;;;;;-128.00;-1.00;-1.00;100125;1300;1003576;-27
2022/05/09 06:35:24;;;;;;;5.60;3.00;;;;;;;-128.00;-1.00;-1.00;100198;1300;1003736;-30
2022/05/09 06:37:57;;;;;;;6.90;2.50;;;;;;;-128.00;-1.00;-1.00;100278;1300;1003900;-27
2022/05/09 06:40:28;;;;;;;6.80;3.10;;;;;;;-128.00;-1.00;-1.00;100241;1300;1003292;-27
2022/05/09 06:42:57;;;;;;;5.00;2.20;;;;;;;-128.00;-1.00;-1.00;100270;1300;1004577;-27
2022/05/09 06:45:26;;;;;;;9.10;3.00;;;;;;;-128.00;-1.00;-1.00;100098;1300;1003829;-30
2022/05/09 06:47:56;;;;;;;3.60;2.00;;;;;;;-128.00;-1.00;-1.00;100237;1300;1003425;-29
2022/05/09 06:50:28;;;;;;;4.80;2.70;;;;;;;-128.00;-1.00;-1.00;100291;1300;1002973;-25
2022/05/09 06:52:58;;;;;;;5.70;2.10;;;;;;;-128.00;-1.00;-1.00;100301;1300;1004343;-28
2022/05/09 06:55:27;;;;;;;2.80;2.20;;;;;;;-128.00;-1.00;-1.00;100229;1299;1003962;-27
2022/05/09 06:57:56;;;;;;;7.40;2.20;;;;;;;-128.00;-1.00;-1.00;100274;1300;1003648;-28
2022/05/09 07:00:25;;;;;;;6.20;2.30;;;;;;;-128.00;-1.00;-1.00;100367;1300;1003799;-25
2022/05/09 07:02:54;;;;;;;3.50;2.50;;;;;;;-128.00;-1.00;-1.00;100229;1300;1003713;-24
2022/05/09 07:05:23;;;;;;;3.40;2.20;;;;;;;-128.00;-1.00;-1.00;100242;1300;1003375;-28
2022/05/09 07:07:52;;;;;;;16.90;3.30;;;;;;;-128.00;-1.00;-1.00;100263;1300;1003101;-28
2022/05/09 07:10:21;;;;;;;7.80;2.40;;;;;;;-128.00;-1.00;-1.00;100324;1300;1004359;-25
2022/05/09 07:12:52;;;;;;;4.20;2.60;;;;;;;-128.00;-1.00;-1.00;100189;1300;1004089;-25
2022/05/09 07:15:23;;;;;;;11.60;3.10;;;;;;;-128.00;-1.00;-1.00;100215;1300;1003521;-29
2022/05/09 07:17:52;;;;;;;7.10;4.00;;;;;;;-128.00;-1.00;-1.00;100246;1300;1002695;-28
2022/05/09 07:20:22;;;;;;;5.70;1.60;;;;;;;-128.00;-1.00;-1.00;100269;1300;1003547;-28
2022/05/09 07:22:53;;;;;;;7.60;3.10;;;;;;;-128.00;-1.00;-1.00;100257;1300;1003822;-25
2022/05/09 07:25:23;;;;;;;7.60;2.40;;;;;;;-128.00;-1.00;-1.00;100266;1300;1003343;-27
2022/05/09 07:27:53;;;;;;;3.70;2.10;;;;;;;-128.00;-1.00;-1.00;100256;1300;1003043;-25
2022/05/09 07:30:23;;;;;;;20.70;2.90;;;;;;;-128.00;-1.00;-1.00;100246;1300;1004605;-29
2022/05/09 07:32:52;;;;;;;9.80;2.50;;;;;;;-128.00;-1.00;-1.00;100195;1300;1003937;-29
2022/05/09 07:35:22;;;;;;;13.30;4.00;;;;;;;-128.00;-1.00;-1.00;100210;1300;1003873;-29
2022/05/09 07:37:50;;;;;;;4.70;2.60;;;;;;;-128.00;-1.00;-1.00;100265;1300;1003219;-28
2022/05/09 07:40:20;;;;;;;2.90;1.70;;;;;;;-128.00;-1.00;-1.00;100314;1300;1004477;-24
2022/05/09 07:42:49;;;;;;;11.10;3.20;;;;;;;-128.00;-1.00;-1.00;100202;1300;1003494;-28
2022/05/09 07:45:19;;;;;;;72.60;3.90;;;;;;;-128.00;-1.00;-1.00;100264;1300;1002995;-28
2022/05/09 07:47:48;;;;;;;9.20;2.60;;;;;;;-128.00;-1.00;-1.00;100216;1300;1004991;-28
2022/05/09 07:50:17;;;;;;;3.30;2.20;;;;;;;-128.00;-1.00;-1.00;100254;1300;1003140;-26
2022/05/09 07:52:46;;;;;;;4.40;2.10;;;;;;;-128.00;-1.00;-1.00;100330;1300;1004268;-24
2022/05/09 07:55:15;;;;;;;12.00;2.60;;;;;;;-128.00;-1.00;-1.00;100262;1300;1004253;-25
2022/05/09 07:57:44;;;;;;;8.20;2.80;;;;;;;-128.00;-1.00;-1.00;100260;1300;1004045;-28
2022/05/09 08:00:14;;;;;;;9.20;2.30;;;;;;;-128.00;-1.00;-1.00;100240;1299;1004323;-25
2022/05/09 08:02:43;;;;;;;4.30;1.70;;;;;;;-128.00;-1.00;-1.00;100240;1300;1003932;-28
2022/05/09 08:05:14;;;;;;;5.30;1.70;;;;;;;-128.00;-1.00;-1.00;100276;1300;1003242;-28
2022/05/09 08:07:43;;;;;;;6.50;2.40;;;;;;;-128.00;-1.00;-1.00;100211;1300;1002980;-25
2022/05/09 08:10:14;;;;;;;9.40;2.10;;;;;;;-128.00;-1.00;-1.00;100265;1300;1003433;-25
2022/05/09 08:12:43;;;;;;;2.70;1.00;;;;;;;-128.00;-1.00;-1.00;99563;1300;1003198;-25
2022/05/09 08:15:13;;;;;;;5.40;2.10;;;;;;;-128.00;-1.00;-1.00;100228;1299;1004573;-28
2022/05/09 08:17:45;;;;;;;3.60;1.70;;;;;;;-128.00;-1.00;-1.00;100264;1300;1003543;-29
2022/05/09 08:20:16;;;;;;;13.30;1.60;;;;;;;-128.00;-1.00;-1.00;100255;1300;1003215;-25
2022/05/09 08:22:45;;;;;;;4.00;2.30;;;;;;;-128.00;-1.00;-1.00;100167;1299;1003729;-25
2022/05/09 08:25:14;;;;;;;3.00;2.10;;;;;;;-128.00;-1.00;-1.00;100266;1300;1003791;-24
2022/05/09 08:27:44;;;;;;;12.40;7.30;;;;;;;-128.00;-1.00;-1.00;100211;1300;1003593;-24
2022/05/09 08:30:13;;;;;;;14.00;1.70;;;;;;;-128.00;-1.00;-1.00;100191;1300;1003504;-24
2022/05/09 08:32:42;;;;;;;5.00;1.60;;;;;;;-128.00;-1.00;-1.00;100199;1300;1003765;-28
2022/05/09 08:35:13;;;;;;;6.70;1.60;;;;;;;-128.00;-1.00;-1.00;100304;1300;1003397;-24
2022/05/09 08:37:43;;;;;;;12.10;1.30;;;;;;;-128.00;-1.00;-1.00;100260;1300;1003743;-25
2022/05/09 08:40:13;;;;;;;4.70;1.80;;;;;;;-128.00;-1.00;-1.00;100285;1300;1004087;-25
2022/05/09 08:42:48;;;;;;;9.80;1.90;;;;;;;-128.00;-1.00;-1.00;100200;1300;1005166;-25
2022/05/09 08:45:23;;;;;;;7.80;2.10;;;;;;;-128.00;-1.00;-1.00;100246;1299;1003747;-25
2022/05/09 08:47:55;;;;;;;9.00;2.10;;;;;;;-128.00;-1.00;-1.00;100286;1300;1002949;-28
2022/05/09 08:50:31;;;;;;;3.80;2.40;;;;;;;-128.00;-1.00;-1.00;100237;1300;1003439;-25
2022/05/09 08:53:04;;;;;;;5.40;2.10;;;;;;;-128.00;-1.00;-1.00;100248;1300;1003594;-24
2022/05/09 08:55:37;;;;;;;5.50;1.80;;;;;;;-128.00;-1.00;-1.00;100249;1299;1003783;-29
2022/05/09 08:58:11;;;;;;;3.40;1.70;;;;;;;-128.00;-1.00;-1.00;100311;1300;1003571;-25
2022/05/09 09:00:40;;;;;;;9.00;3.10;;;;;;;-128.00;-1.00;-1.00;100289;1300;1003917;-29
2022/05/09 09:03:16;;;;;;;6.00;2.60;;;;;;;-128.00;-1.00;-1.00;100243;1300;1003919;-24
2022/05/09 09:05:47;;;;;;;2.10;1.20;;;;;;;-128.00;-1.00;-1.00;100262;1300;1003397;-25
2022/05/09 09:08:20;;;;;;;4.70;2.30;;;;;;;-128.00;-1.00;-1.00;100279;1300;1003682;-29
2022/05/09 09:10:52;;;;;;;;;;;;;;;-128.00;-1.00;-1.00;100254;1300;1003748;-29
2022/05/09 09:13:41;;;;;;;3.60;1.70;;;;;;;-128.00;-1.00;-1.00;100255;1300;1004238;-25
2022/05/09 09:16:17;;;;;;;2.40;1.40;;;;;;;-128.00;-1.00;-1.00;100243;1300;1004344;-28
2022/05/09 09:18:55;;;;;;;4.10;1.80;;;;;;;-128.00;-1.00;-1.00;100266;1300;1003939;-24
2022/05/09 09:21:31;;;;;;;9.70;1.60;;;;;;;-128.00;-1.00;-1.00;100130;1300;1003632;-24
2022/05/09 09:24:07;;;;;;;5.20;2.30;;;;;;;-128.00;-1.00;-1.00;100247;1300;1003416;-28
2022/05/09 09:26:43;;;;;;;6.40;1.70;;;;;;;-128.00;-1.00;-1.00;100250;1300;1003276;-23
2022/05/09 09:29:15;;;;;;;5.20;2.10;;;;;;;-128.00;-1.00;-1.00;100240;1300;1003859;-24
2022/05/09 09:31:47;;;;;;;3.80;2.00;;;;;;;-128.00;-1.00;-1.00;100265;1300;1003493;-28
2022/05/09 09:34:24;;;;;;;2.70;1.20;;;;;;;-128.00;-1.00;-1.00;100130;1300;1004454;-29
2022/05/09 09:36:58;;;;;;;1.70;1.30;;;;;;;-128.00;-1.00;-1.00;100330;1300;1004124;-28
2022/05/09 09:39:27;;;;;;;6.10;1.50;;;;;;;-128.00;-1.00;-1.00;100241;1300;1004018;-31
2022/05/09 09:41:56;;;;;;;9.80;1.90;;;;;;;-128.00;-1.00;-1.00;100306;1300;1003957;-28
2022/05/09 09:44:26;;;;;;;4.60;1.80;;;;;;;-128.00;-1.00;-1.00;100297;1300;1003430;-25
2022/05/09 09:47:02;;;;;;;5.50;1.50;;;;;;;-128.00;-1.00;-1.00;100267;1300;1003703;-26
2022/05/09 09:49:33;;;;;;;2.00;1.20;;;;;;;-128.00;-1.00;-1.00;100258;1300;1004414;-25
2022/05/09 09:52:04;;;;;;;8.00;1.50;;;;;;;-128.00;-1.00;-1.00;100244;1300;1004079;-25
2022/05/09 09:54:34;;;;;;;5.20;1.60;;;;;;;-128.00;-1.00;-1.00;100259;1300;1003422;-28
2022/05/09 09:57:10;;;;;;;7.20;2.00;;;;;;;-128.00;-1.00;-1.00;100215;1300;1003756;-28
2022/05/09 09:59:39;;;;;;;4.70;1.70;;;;;;;-128.00;-1.00;-1.00;100244;1300;1003305;-24
2022/05/09 10:02:16;;;;;;;2.90;1.40;;;;;;;-128.00;-1.00;-1.00;100253;1300;1004016;-24
2022/05/09 10:04:46;;;;;;;5.10;1.70;;;;;;;-128.00;-1.00;-1.00;100170;1300;1003926;-24
2022/05/09 10:07:22;;;;;;;7.10;2.10;;;;;;;-128.00;-1.00;-1.00;100243;1300;1003659;-24
2022/05/09 10:09:58;;;;;;;3.40;1.00;;;;;;;-128.00;-1.00;-1.00;100247;1300;1004207;-24
2022/05/09 10:12:29;;;;;;;2.50;1.30;;;;;;;-128.00;-1.00;-1.00;100238;1300;1003468;-28
2022/05/09 10:14:58;;;;;;;4.70;1.60;;;;;;;-128.00;-1.00;-1.00;100249;1300;1003279;-28
2022/05/09 10:17:29;;;;;;;3.20;1.20;;;;;;;-128.00;-1.00;-1.00;100111;1300;1003599;-24
2022/05/09 10:20:00;;;;;;;5.60;1.80;;;;;;;-128.00;-1.00;-1.00;100097;1300;1004122;-25
2022/05/09 10:25:07;;;;;;;4.00;1.80;;;;;;;-128.00;-1.00;-1.00;100272;1300;1004005;-24
2022/05/09 10:27:36;;;;;;;12.30;1.90;;;;;;;-128.00;-1.00;-1.00;100104;1300;1003554;-24
2022/05/09 10:30:08;;;;;;;2.90;1.10;;;;;;;-128.00;-1.00;-1.00;100071;1300;1003208;-25
2022/05/09 10:32:39;;;;;;;5.10;1.10;;;;;;;-128.00;-1.00;-1.00;100284;1300;1003359;-28
2022/05/09 10:35:12;;;;;;;5.00;1.60;;;;;;;-128.00;-1.00;-1.00;100342;1300;1004113;-25
2022/05/09 10:37:46;;;;;;;9.90;1.80;;;;;;;-128.00;-1.00;-1.00;100218;1300;1003191;-24
2022/05/09 10:40:18;;;;;;;2.80;1.40;;;;;;;-128.00;-1.00;-1.00;100169;1300;1003645;-28
2022/05/09 10:42:52;;;;;;;2.70;0.70;;;;;;;-128.00;-1.00;-1.00;100302;1300;1003488;-26
2022/05/09 10:45:24;;;;;;;3.20;1.20;;;;;;;-128.00;-1.00;-1.00;100249;1300;1004179;-28
2022/05/09 10:47:56;;;;;;;1.90;0.90;;;;;;;-128.00;-1.00;-1.00;100235;1300;1005116;-29
2022/05/09 10:50:28;;;;;;;1.70;0.60;;;;;;;-128.00;-1.00;-1.00;100225;1300;1003812;-25
2022/05/09 10:53:06;;;;;;;3.20;1.40;;;;;;;-128.00;-1.00;-1.00;100233;1300;1004150;-28
2022/05/09 10:55:38;;;;;;;8.60;1.30;;;;;;;-128.00;-1.00;-1.00;100240;1300;1004100;-29
2022/05/09 10:58:13;;;;;;;1.10;0.60;;;;;;;-128.00;-1.00;-1.00;100249;1300;1004932;-25
2022/05/09 11:00:46;;;;;;;12.40;1.40;;;;;;;-128.00;-1.00;-1.00;100288;1300;1004244;-25
2022/05/09 11:03:23;;;;;;;3.00;0.90;;;;;;;-128.00;-1.00;-1.00;100235;1300;1003492;-28
2022/05/09 11:05:55;;;;;;;2.30;1.00;;;;;;;-128.00;-1.00;-1.00;100306;1300;1003028;-28
2022/05/09 11:08:30;;;;;;;5.60;1.30;;;;;;;-128.00;-1.00;-1.00;100106;1300;1002952;-24
2022/05/09 11:11:05;;;;;;;4.80;1.60;;;;;;;-128.00;-1.00;-1.00;100211;1300;1003951;-24
2022/05/09 11:13:38;;;;;;;3.00;1.50;;;;;;;-128.00;-1.00;-1.00;100214;1300;1002850;-24
2022/05/09 11:16:16;;;;;;;3.60;1.20;;;;;;;-128.00;-1.00;-1.00;100249;1300;1003770;-28
2022/05/09 11:18:52;;;;;;;2.90;1.30;;;;;;;-128.00;-1.00;-1.00;100256;1300;1003991;-24
2022/05/09 11:21:24;;;;;;;7.30;1.40;;;;;;;-128.00;-1.00;-1.00;100254;1300;1003574;-28
2022/05/09 11:23:56;;;;;;;3.50;1.30;;;;;;;-128.00;-1.00;-1.00;100295;1300;1002801;-28
2022/05/09 11:26:38;;;;;;;1.90;0.90;;;;;;;-128.00;-1.00;-1.00;100247;1300;1002925;-30
2022/05/09 11:29:14;;;;;;;6.10;1.40;;;;;;;-128.00;-1.00;-1.00;100180;1300;1003387;-24
2022/05/09 11:31:50;;;;;;;10.70;1.20;;;;;;;-128.00;-1.00;-1.00;100270;1300;1003707;-27
2022/05/09 11:34:26;;;;;;;1.80;1.10;;;;;;;-128.00;-1.00;-1.00;100233;1300;1003917;-27
2022/05/09 11:37:02;;;;;;;5.90;1.50;;;;;;;-128.00;-1.00;-1.00;100211;1300;1002896;-28
2022/05/09 11:39:35;;;;;;;3.70;1.40;;;;;;;-128.00;-1.00;-1.00;100227;1300;1003920;-25
2022/05/09 11:44:47;;;;;;;2.40;0.80;;;;;;;-128.00;-1.00;-1.00;100234;1300;1004784;-28
2022/05/09 11:47:27;;;;;;;2.90;1.20;;;;;;;-128.00;-1.00;-1.00;100249;1300;1004390;-28